Time;durP1;ratioP1;P1;durP2;ratioP2;P2;SDS_P1;SDS_P2;PMS_P1;PMS_P2;Temp;Humidity;BMP_temperature;BMP_pressure;BME280_temperature;BME280_humidity;BME280_pressure;Samples;Min_cycle;Max_cycle;Signal;HPM_P1;HPM_P2
2022/06/17 00:02:09;;;;;;;10.30;10.00;;;18.50;99.90;;;;;;5095821;28;20245;-76
2022/06/17 00:04:37;;;;;;;10.23;9.93;;;18.50;99.90;;;;;;5095329;28;20234;-76
2022/06/17 00:07:09;;;;;;;10.00;9.70;;;18.50;99.90;;;;;;5095366;28;20241;-78
2022/06/17 00:09:38;;;;;;;10.00;9.70;;;18.40;99.90;;;;;;5095073;28;20225;-76
2022/06/17 00:12:12;;;;;;;10.30;10.00;;;18.40;99.90;;;;;;5094916;28;20236;-76
2022/06/17 00:17:21;;;;;;;10.20;9.90;;;18.30;99.90;;;;;;5094595;28;20318;-76
2022/06/17 00:19:48;;;;;;;10.25;9.95;;;18.30;99.90;;;;;;5094742;28;20243;-76
2022/06/17 00:22:16;;;;;;;10.32;10.02;;;18.20;99.90;;;;;;5094606;28;20228;-76
2022/06/17 00:24:46;;;;;;;10.20;9.90;;;18.20;99.90;;;;;;5095035;28;20240;-76
2022/06/17 00:27:14;;;;;;;10.27;9.98;;;18.10;99.90;;;;;;5094781;28;20316;-76
2022/06/17 00:29:41;;;;;;;10.20;9.90;;;18.10;99.90;;;;;;5094651;28;20229;-76
2022/06/17 00:32:09;;;;;;;10.23;9.93;;;18.10;99.90;;;;;;5094979;28;20222;-76
2022/06/17 00:34:37;;;;;;;10.27;9.98;;;18.10;99.90;;;;;;5094944;28;20232;-76
2022/06/17 00:37:12;;;;;;;10.30;10.00;;;18.10;99.90;;;;;;5094698;28;20244;-76
2022/06/17 00:39:40;;;;;;;10.25;9.95;;;18.10;99.90;;;;;;5094788;28;20229;-76
2022/06/17 00:42:14;;;;;;;10.07;9.77;;;18.00;99.90;;;;;;5094427;28;20222;-76
2022/06/17 00:44:49;;;;;;;10.00;9.70;;;18.00;99.90;;;;;;5094329;28;20220;-76
2022/06/17 00:47:26;;;;;;;10.00;9.70;;;18.00;99.90;;;;;;5094767;28;20236;-76
2022/06/17 00:49:59;;;;;;;10.02;9.73;;;18.00;99.90;;;;;;5094470;28;20229;-76
2022/06/17 00:52:32;;;;;;;10.30;10.00;;;18.00;99.90;;;;;;5094791;28;20224;-76
2022/06/17 00:55:05;;;;;;;10.00;9.70;;;17.90;99.90;;;;;;5094608;28;20244;-76
2022/06/17 00:57:38;;;;;;;10.05;9.75;;;17.90;99.90;;;;;;5094663;28;20255;-76
2022/06/17 01:00:25;;;;;;;9.95;9.65;;;17.90;99.90;;;;;;5094602;28;20230;-76
2022/06/17 01:02:57;;;;;;;10.25;9.95;;;17.80;99.90;;;;;;5094994;28;20213;-76
2022/06/17 01:05:30;;;;;;;10.23;9.93;;;17.80;99.90;;;;;;5094050;28;20232;-76
2022/06/17 01:08:05;;;;;;;10.18;9.88;;;17.60;99.90;;;;;;5094613;28;20225;-75
2022/06/17 01:10:32;;;;;;;10.20;9.90;;;17.60;99.90;;;;;;5094867;28;20213;-75
2022/06/17 01:13:06;;;;;;;10.30;10.00;;;17.60;99.90;;;;;;5094848;28;20229;-76
2022/06/17 01:15:36;;;;;;;10.50;10.20;;;17.60;99.90;;;;;;5094342;28;20228;-76
2022/06/17 01:18:05;;;;;;;10.40;10.10;;;17.60;99.90;;;;;;5094085;28;20346;-75
2022/06/17 01:20:34;;;;;;;10.23;9.93;;;17.50;99.90;;;;;;5094286;28;20240;-76
2022/06/17 01:23:09;;;;;;;10.10;9.80;;;17.50;99.90;;;;;;5094516;28;20229;-76
2022/06/17 01:25:43;;;;;;;10.00;9.70;;;17.50;99.90;;;;;;5093552;28;20225;-76
2022/06/17 01:28:14;;;;;;;9.90;9.60;;;17.50;99.90;;;;;;5094413;28;20231;-76
2022/06/17 01:30:45;;;;;;;10.20;9.90;;;17.50;99.90;;;;;;5094474;28;20213;-76
2022/06/17 01:33:18;;;;;;;10.23;9.93;;;17.40;99.90;;;;;;5094421;28;20236;-75
2022/06/17 01:35:51;;;;;;;10.25;9.95;;;17.40;99.90;;;;;;5094092;28;20233;-76
2022/06/17 01:38:21;;;;;;;10.10;9.80;;;17.30;99.90;;;;;;5094840;28;20227;-76
2022/06/17 01:40:49;;;;;;;10.20;9.90;;;17.20;99.90;;;;;;5094939;28;20236;-76
2022/06/17 01:43:25;;;;;;;10.13;9.82;;;17.20;99.90;;;;;;5104307;28;20341;-81
2022/06/17 01:46:07;;;;;;;9.85;9.55;;;17.10;99.90;;;;;;5117198;28;20256;-82
2022/06/17 01:56:51;;;;;;;10.25;9.95;;;16.90;99.90;;;;;;5010075;28;20370;-81
2022/06/17 02:27:41;;;;;;;10.10;9.80;;;16.50;99.90;;;;;;4949837;28;20239;-81
2022/06/17 02:30:45;;;;;;;10.00;9.70;;;16.50;99.90;;;;;;4955315;28;20235;-81
2022/06/17 02:33:38;;;;;;;10.20;9.90;;;16.30;99.90;;;;;;5022190;28;20339;-81
2022/06/17 02:36:59;;;;;;;10.18;9.88;;;16.30;99.90;;;;;;5021603;28;20291;-81
2022/06/17 02:40:07;;;;;;;9.85;9.55;;;16.20;99.90;;;;;;5102117;28;20229;-81
2022/06/17 02:42:55;;;;;;;10.70;10.40;;;16.20;99.90;;;;;;5097504;28;20229;-81
2022/06/17 02:45:43;;;;;;;10.60;10.30;;;16.20;99.90;;;;;;5085519;28;20233;-81
2022/06/17 02:52:18;;;;;;;10.38;10.07;;;16.20;99.90;;;;;;5099334;28;20217;-81
2022/06/17 02:55:14;;;;;;;10.48;10.18;;;16.10;99.90;;;;;;5037667;28;20227;-81
2022/06/17 03:01:47;;;;;;;10.70;10.40;;;16.10;99.90;;;;;;4991124;28;20236;-81
2022/06/17 03:04:30;;;;;;;10.88;10.57;;;16.10;99.90;;;;;;5039181;28;20227;-81
2022/06/17 03:10:21;;;;;;;10.55;10.25;;;15.90;99.90;;;;;;5053736;28;20287;-80
2022/06/17 03:13:02;;;;;;;10.60;10.30;;;15.90;99.90;;;;;;5100114;28;20235;-80
2022/06/17 03:15:30;;;;;;;10.60;10.30;;;15.90;99.90;;;;;;5100004;28;20289;-81
2022/06/17 03:18:06;;;;;;;10.70;10.40;;;15.80;99.90;;;;;;5100541;28;20283;-80
2022/06/17 03:20:43;;;;;;;10.40;10.10;;;15.80;99.90;;;;;;5099881;28;20236;-80
2022/06/17 03:23:41;;;;;;;10.45;10.15;;;15.80;99.90;;;;;;5100213;28;20311;-81
2022/06/17 03:26:27;;;;;;;10.35;10.05;;;15.80;99.90;;;;;;5099587;28;20244;-80
2022/06/17 03:28:56;;;;;;;10.45;10.15;;;15.80;99.90;;;;;;5100245;28;20303;-80
2022/06/17 03:31:34;;;;;;;10.25;9.95;;;15.80;99.90;;;;;;5100437;28;20226;-80
2022/06/17 03:34:12;;;;;;;10.45;10.15;;;15.80;99.90;;;;;;5100902;28;20248;-80
2022/06/17 03:36:50;;;;;;;10.48;10.18;;;15.80;99.90;;;;;;5100215;28;20266;-80
2022/06/17 03:39:38;;;;;;;10.68;10.38;;;15.80;99.90;;;;;;5100194;28;20233;-80
2022/06/17 03:42:25;;;;;;;10.48;10.18;;;15.80;99.90;;;;;;5100083;28;20313;-80
2022/06/17 03:48:33;;;;;;;10.45;10.15;;;15.80;99.90;;;;;;5113218;28;20284;-80
2022/06/17 03:51:09;;;;;;;10.50;10.20;;;15.70;99.90;;;;;;5116138;28;20232;-80
2022/06/17 03:53:51;;;;;;;10.60;10.30;;;15.60;99.90;;;;;;5104196;28;20320;-80
2022/06/17 03:56:36;;;;;;;10.65;10.35;;;15.50;99.90;;;;;;5101558;28;20225;-80
2022/06/17 04:02:16;;;;;;;10.80;10.50;;;15.50;99.90;;;;;;5102194;28;20234;-80
2022/06/17 04:05:00;;;;;;;10.80;10.50;;;15.60;99.90;;;;;;5100466;28;20229;-81
2022/06/17 04:07:37;;;;;;;10.77;10.48;;;15.60;99.90;;;;;;5100136;28;20217;-80
2022/06/17 04:10:13;;;;;;;11.00;10.70;;;15.60;99.90;;;;;;5100462;28;20221;-81
2022/06/17 04:12:53;;;;;;;10.70;10.40;;;15.60;99.90;;;;;;5099897;28;20340;-81
2022/06/17 04:15:46;;;;;;;10.55;10.25;;;15.70;99.90;;;;;;5099238;28;20232;-81
2022/06/17 04:18:16;;;;;;;10.65;10.35;;;15.80;99.90;;;;;;5098974;28;20298;-80
2022/06/17 04:20:54;;;;;;;10.82;10.52;;;15.90;99.90;;;;;;5099245;28;20275;-81
2022/06/17 04:23:47;;;;;;;10.70;10.40;;;15.90;99.90;;;;;;5107621;28;20288;-80
2022/06/17 04:26:34;;;;;;;10.80;10.50;;;16.00;99.90;;;;;;5069575;28;20229;-80
2022/06/17 04:29:34;;;;;;;10.80;10.50;;;16.10;99.90;;;;;;5109763;28;20221;-81
2022/06/17 04:32:15;;;;;;;10.55;10.25;;;16.10;99.90;;;;;;5112956;28;20221;-81
2022/06/17 04:35:03;;;;;;;10.70;10.40;;;16.20;99.90;;;;;;5116092;28;20228;-81
2022/06/17 04:37:48;;;;;;;10.80;10.50;;;16.20;99.90;;;;;;5105599;28;20299;-81
2022/06/17 04:40:37;;;;;;;10.70;10.40;;;16.30;99.90;;;;;;5110673;28;20217;-80
2022/06/17 04:43:20;;;;;;;10.80;10.50;;;16.40;99.90;;;;;;5102170;28;20225;-81
2022/06/17 04:46:18;;;;;;;10.77;10.48;;;16.50;99.90;;;;;;5100946;28;20231;-81
2022/06/17 04:48:51;;;;;;;10.77;10.48;;;16.60;99.90;;;;;;5100188;28;20224;-80
2022/06/17 04:51:25;;;;;;;11.00;10.70;;;16.70;99.90;;;;;;5099516;28;20602;-81
2022/06/17 04:54:01;;;;;;;10.73;10.43;;;16.70;99.90;;;;;;5099867;28;20233;-81
2022/06/17 04:59:40;;;;;;;10.80;10.50;;;16.90;99.90;;;;;;5097934;28;20237;-81
2022/06/17 05:02:26;;;;;;;10.88;10.57;;;17.00;99.90;;;;;;5098872;28;20335;-81
2022/06/17 05:05:02;;;;;;;10.88;10.57;;;17.10;99.90;;;;;;5099631;28;20244;-81
2022/06/17 05:07:43;;;;;;;10.73;10.43;;;17.20;99.90;;;;;;5099384;28;20290;-80
2022/06/17 05:10:31;;;;;;;10.65;10.35;;;17.30;99.90;;;;;;5098930;28;20260;-81
2022/06/17 05:13:15;;;;;;;10.93;10.63;;;17.30;99.90;;;;;;5099115;28;20229;-80
2022/06/17 05:15:45;;;;;;;10.85;10.55;;;17.20;99.90;;;;;;5098671;28;20296;-81
2022/06/17 05:18:23;;;;;;;10.80;10.50;;;17.20;99.90;;;;;;5099722;28;20225;-80
2022/06/17 05:21:01;;;;;;;10.80;10.50;;;17.30;99.90;;;;;;5098882;28;20237;-82
2022/06/17 05:23:31;;;;;;;10.70;10.40;;;17.30;99.90;;;;;;5098805;28;20218;-80
2022/06/17 05:25:59;;;;;;;10.80;10.50;;;17.40;99.90;;;;;;5118956;22;20233;-82
2022/06/17 05:28:27;;;;;;;11.10;10.80;;;17.50;99.90;;;;;;5078309;28;20230;-82
2022/06/17 05:30:57;;;;;;;10.60;10.30;;;17.60;99.90;;;;;;5082957;28;21091;-82
2022/06/17 05:33:29;;;;;;;10.63;10.32;;;17.70;99.90;;;;;;5085621;28;20230;-82
2022/06/17 05:35:57;;;;;;;10.70;10.40;;;17.70;99.90;;;;;;5086161;28;20230;-82
2022/06/17 05:38:24;;;;;;;10.98;10.68;;;17.80;99.90;;;;;;5086419;28;20257;-82
2022/06/17 05:40:54;;;;;;;10.50;10.20;;;17.80;99.90;;;;;;5086256;28;20265;-83
2022/06/17 05:43:23;;;;;;;10.73;10.43;;;17.80;99.90;;;;;;5086351;28;20277;-83
2022/06/17 05:45:53;;;;;;;10.68;10.38;;;17.80;99.90;;;;;;5085068;28;20229;-82
2022/06/17 05:48:22;;;;;;;10.70;10.40;;;18.00;99.90;;;;;;5087118;28;20307;-81
2022/06/17 05:51:39;;;;;;;10.52;10.23;;;18.10;99.90;;;;;;5086711;28;20253;-85
2022/06/17 05:54:14;;;;;;;10.70;10.40;;;18.20;99.90;;;;;;5085989;28;20235;-81
2022/06/17 05:56:44;;;;;;;11.07;10.77;;;18.30;99.90;;;;;;5085483;28;20230;-82
2022/06/17 05:59:13;;;;;;;10.98;10.68;;;18.50;99.90;;;;;;5087714;28;20294;-83
2022/06/17 06:01:44;;;;;;;10.88;10.57;;;18.50;99.90;;;;;;5087290;28;20245;-83
2022/06/17 06:04:12;;;;;;;11.00;10.70;;;18.40;99.90;;;;;;5084063;28;20230;-83
2022/06/17 06:06:42;;;;;;;11.00;10.70;;;18.50;99.90;;;;;;5088415;28;20282;-84
2022/06/17 06:09:19;;;;;;;10.98;10.68;;;18.60;99.90;;;;;;5085353;28;20280;-84
2022/06/17 06:11:50;;;;;;;11.00;10.70;;;18.80;99.90;;;;;;5092980;28;20237;-85
2022/06/17 06:14:56;;;;;;;10.75;10.45;;;18.90;99.90;;;;;;5095714;28;20206;-85
2022/06/17 06:17:25;;;;;;;10.73;10.43;;;19.00;99.90;;;;;;5091533;28;20320;-84
2022/06/17 06:22:51;;;;;;;10.80;10.50;;;19.30;99.90;;;;;;5089831;28;20441;-84
2022/06/17 06:25:28;;;;;;;10.93;10.63;;;19.40;99.90;;;;;;5087145;28;20226;-84
2022/06/17 06:28:19;;;;;;;11.10;10.80;;;19.40;99.90;;;;;;5090405;28;20241;-83
2022/06/17 06:30:54;;;;;;;10.82;10.52;;;19.30;99.90;;;;;;5090526;28;20230;-82
2022/06/17 06:33:22;;;;;;;10.60;10.30;;;19.40;99.90;;;;;;5090029;28;20236;-82
2022/06/17 06:36:22;;;;;;;10.90;10.60;;;19.60;99.90;;;;;;5090738;28;20226;-82
2022/06/17 06:38:50;;;;;;;10.73;10.43;;;19.60;99.90;;;;;;5076089;28;20320;-83
2022/06/17 06:44:04;;;;;;;10.88;10.57;;;19.90;99.90;;;;;;5088079;28;20284;-84
2022/06/17 06:49:31;;;;;;;11.00;10.70;;;20.20;99.90;;;;;;5086151;28;20225;-81
2022/06/17 06:52:08;;;;;;;10.60;10.30;;;20.20;99.90;;;;;;5085557;28;20260;-83
2022/06/17 06:57:28;;;;;;;10.80;10.50;;;20.10;99.90;;;;;;5086120;28;20222;-85
2022/06/17 07:00:03;;;;;;;10.65;10.35;;;20.10;99.90;;;;;;5090440;28;20298;-83
2022/06/17 07:02:33;;;;;;;10.77;10.48;;;20.30;99.90;;;;;;5088886;28;20233;-83
2022/06/17 07:05:11;;;;;;;10.55;10.25;;;20.40;99.90;;;;;;5088214;28;20292;-82
2022/06/17 07:07:42;;;;;;;11.00;10.70;;;20.50;99.90;;;;;;5091399;28;20278;-84
2022/06/17 07:10:22;;;;;;;10.98;10.68;;;20.50;99.90;;;;;;5090617;28;20233;-83
2022/06/17 07:12:59;;;;;;;10.98;10.68;;;20.60;99.90;;;;;;5088501;28;20226;-84
2022/06/17 07:15:28;;;;;;;10.70;10.40;;;20.70;99.90;;;;;;5089379;28;20376;-84
2022/06/17 07:18:07;;;;;;;10.70;10.40;;;20.80;99.90;;;;;;5089052;28;20249;-83
2022/06/17 07:20:47;;;;;;;10.57;10.27;;;21.00;99.90;;;;;;5087810;28;20230;-83
2022/06/17 07:23:22;;;;;;;10.48;10.18;;;21.10;99.90;;;;;;5084997;28;20360;-84
2022/06/17 07:25:53;;;;;;;10.50;10.20;;;21.10;99.90;;;;;;5085627;28;21047;-84
2022/06/17 07:28:28;;;;;;;10.70;10.40;;;21.10;99.90;;;;;;5086851;28;20234;-82
2022/06/17 07:30:58;;;;;;;10.80;10.50;;;21.20;99.90;;;;;;5086843;28;20240;-82
2022/06/17 07:33:35;;;;;;;10.77;10.48;;;21.20;99.90;;;;;;5086965;28;20279;-81
2022/06/17 07:36:07;;;;;;;11.10;10.80;;;21.30;99.90;;;;;;5086507;28;20229;-83
2022/06/17 07:44:18;;;;;;;10.70;10.40;;;21.50;99.90;;;;;;5086492;28;20248;-83
2022/06/17 07:46:47;;;;;;;10.70;10.40;;;21.70;99.90;;;;;;5086286;28;20218;-83
2022/06/17 07:49:16;;;;;;;10.73;10.43;;;21.70;99.90;;;;;;5086833;28;20260;-82
2022/06/17 07:51:48;;;;;;;10.70;10.40;;;21.90;99.90;;;;;;5085854;28;20230;-83
2022/06/17 07:54:16;;;;;;;10.93;10.63;;;22.10;99.90;;;;;;5086964;28;20230;-83
2022/06/17 07:56:44;;;;;;;11.13;10.82;;;22.10;99.90;;;;;;5087021;28;20223;-82
2022/06/17 07:59:23;;;;;;;10.93;10.63;;;22.30;99.90;;;;;;5085787;28;20214;-85
2022/06/17 08:01:52;;;;;;;11.00;10.70;;;22.40;99.90;;;;;;5083437;28;20261;-84
2022/06/17 08:04:21;;;;;;;11.05;10.75;;;22.50;99.90;;;;;;5082970;28;20234;-84
2022/06/17 08:06:52;;;;;;;11.05;10.75;;;22.50;99.90;;;;;;5083758;28;20230;-83
2022/06/17 08:09:21;;;;;;;10.63;10.32;;;22.60;99.90;;;;;;5083501;28;20232;-85
2022/06/17 08:11:56;;;;;;;10.60;10.30;;;22.80;99.90;;;;;;5083960;28;20284;-82
2022/06/17 08:14:56;;;;;;;10.40;10.10;;;22.90;99.90;;;;;;5083506;28;20233;-81
2022/06/17 08:17:26;;;;;;;10.45;10.15;;;23.00;99.90;;;;;;5063499;28;20262;-83
2022/06/17 08:19:56;;;;;;;10.57;10.27;;;23.10;99.90;;;;;;5063727;28;20237;-83
2022/06/17 08:22:25;;;;;;;10.63;10.32;;;23.30;99.90;;;;;;5079037;28;20241;-80
2022/06/17 08:24:59;;;;;;;11.02;10.73;;;23.40;99.90;;;;;;5085303;28;20249;-83
2022/06/17 08:27:34;;;;;;;10.95;10.65;;;23.40;99.90;;;;;;5077426;28;20280;-84
2022/06/17 08:30:11;;;;;;;10.60;10.30;;;23.20;99.90;;;;;;5084126;28;20213;-83
2022/06/17 08:32:51;;;;;;;10.50;10.20;;;23.20;99.90;;;;;;5082829;28;20234;-83
2022/06/17 08:38:15;;;;;;;10.60;10.30;;;23.60;99.90;;;;;;5082530;28;20233;-84
2022/06/17 08:41:02;;;;;;;10.75;10.45;;;23.60;99.90;;;;;;5089328;28;20241;-84
2022/06/17 09:50:39;;;;;;;10.88;10.57;;;27.10;99.90;;;;;;4885290;29;20243;-87
2022/06/17 09:54:12;;;;;;;10.93;10.63;;;27.40;99.90;;;;;;4979451;28;20226;-86
2022/06/17 10:03:32;;;;;;;11.20;10.90;;;27.70;99.90;;;;;;5061952;28;20233;-87
2022/06/17 10:12:55;;;;;;;11.15;10.85;;;27.60;99.90;;;;;;5072821;28;20233;-85
2022/06/17 10:18:31;;;;;;;11.23;10.93;;;27.40;99.90;;;;;;5084012;28;20253;-84
2022/06/17 10:18:43;;;;;;;11.10;10.80;;;27.60;99.90;;;;;;5088501;28;20218;-83
2022/06/17 10:21:54;;;;;;;10.90;10.60;;;27.60;99.90;;;;;;5096234;28;20233;-84
2022/06/17 10:24:39;;;;;;;10.90;10.60;;;27.70;99.90;;;;;;5100406;28;20206;-85
2022/06/17 10:27:31;;;;;;;10.57;10.27;;;27.90;99.90;;;;;;5099502;28;20222;-84
2022/06/17 10:30:12;;;;;;;10.70;10.40;;;28.30;99.90;;;;;;5088216;28;20229;-83
2022/06/17 10:32:44;;;;;;;10.85;10.55;;;28.40;99.90;;;;;;5088312;28;20297;-81
2022/06/17 10:35:19;;;;;;;10.55;10.25;;;28.50;99.90;;;;;;5092136;28;20256;-83
2022/06/17 10:38:01;;;;;;;10.70;10.40;;;28.00;99.90;;;;;;5090534;28;20229;-82
2022/06/17 10:40:36;;;;;;;10.68;10.38;;;27.70;99.90;;;;;;5085832;28;20214;-80
2022/06/17 10:43:14;;;;;;;10.65;10.35;;;27.40;99.90;;;;;;5083640;28;20320;-81
2022/06/17 10:45:44;;;;;;;10.80;10.50;;;27.90;99.90;;;;;;5082341;28;20301;-80
2022/06/17 10:48:32;;;;;;;10.70;10.40;;;28.20;99.90;;;;;;5082987;28;20249;-81
2022/06/17 10:51:02;;;;;;;11.00;10.70;;;28.70;99.90;;;;;;5082220;28;20230;-80
2022/06/17 10:53:40;;;;;;;11.00;10.70;;;29.00;99.90;;;;;;5082610;28;20265;-81
2022/06/17 10:56:17;;;;;;;11.00;10.70;;;29.60;99.90;;;;;;5083321;28;20242;-81
2022/06/17 10:59:06;;;;;;;10.85;10.55;;;29.80;99.90;;;;;;5083386;28;20341;-81
2022/06/17 11:01:53;;;;;;;11.07;10.77;;;29.10;99.90;;;;;;5082635;28;20276;-81
2022/06/17 11:04:29;;;;;;;11.20;10.90;;;28.60;99.90;;;;;;5084446;28;20321;-80
2022/06/17 11:07:00;;;;;;;11.10;10.80;;;28.80;99.90;;;;;;5094369;28;20260;-80
2022/06/17 11:09:39;;;;;;;11.20;10.90;;;29.20;99.90;;;;;;5083601;28;20258;-80
2022/06/17 11:12:16;;;;;;;11.10;10.80;;;29.40;99.90;;;;;;5082393;28;20313;-81
2022/06/17 11:14:53;;;;;;;10.85;10.55;;;29.60;99.90;;;;;;5083334;28;20256;-81
2022/06/17 11:17:31;;;;;;;10.85;10.55;;;30.00;99.90;;;;;;5083542;28;20241;-82
2022/06/17 11:20:09;;;;;;;10.70;10.40;;;30.30;99.90;;;;;;5083535;28;20241;-82
2022/06/17 11:22:40;;;;;;;10.60;10.30;;;30.00;99.90;;;;;;5082816;28;20240;-81
2022/06/17 11:25:26;;;;;;;10.68;10.38;;;30.00;99.90;;;;;;5082663;28;20261;-81
2022/06/17 11:27:58;;;;;;;10.80;10.50;;;30.10;99.90;;;;;;5090215;22;20237;-83
2022/06/17 11:30:31;;;;;;;10.88;10.57;;;30.30;99.90;;;;;;5065668;28;20218;-83
2022/06/17 11:33:00;;;;;;;11.18;10.88;;;30.60;99.90;;;;;;5077707;28;20203;-85
2022/06/17 11:35:39;;;;;;;11.30;11.00;;;30.50;99.90;;;;;;5078592;28;20239;-84
2022/06/17 11:38:16;;;;;;;11.00;10.70;;;30.50;99.90;;;;;;5076273;28;20249;-84
2022/06/17 11:40:52;;;;;;;10.82;10.52;;;30.40;99.90;;;;;;5065208;28;20238;-85
2022/06/17 11:43:33;;;;;;;10.68;10.38;;;30.70;99.90;;;;;;5067278;28;20238;-84
2022/06/17 11:46:13;;;;;;;10.88;10.57;;;30.90;99.00;;;;;;5060270;28;20230;-83
2022/06/17 11:48:42;;;;;;;10.77;10.48;;;30.10;98.50;;;;;;5060308;28;20262;-85
2022/06/17 11:51:16;;;;;;;11.00;10.70;;;30.00;99.00;;;;;;5060156;28;20235;-85
2022/06/17 11:53:47;;;;;;;10.98;10.68;;;30.20;98.80;;;;;;5046640;28;20219;-85
2022/06/17 11:56:34;;;;;;;11.05;10.75;;;30.50;99.20;;;;;;5053943;28;20227;-84
2022/06/17 11:59:09;;;;;;;11.10;10.80;;;30.80;98.20;;;;;;5056054;28;20228;-83
2022/06/17 12:01:37;;;;;;;11.23;10.93;;;30.90;94.90;;;;;;5043588;28;20223;-84
2022/06/17 12:04:06;;;;;;;11.13;10.82;;;31.10;95.60;;;;;;5039885;28;20282;-85
2022/06/17 12:06:47;;;;;;;11.70;11.30;;;31.50;97.50;;;;;;5038152;28;20317;-84
2022/06/17 12:09:29;;;;;;;11.07;10.77;;;31.80;98.80;;;;;;5039132;28;20235;-85
2022/06/17 12:12:03;;;;;;;11.35;11.05;;;32.10;98.30;;;;;;5055720;28;20300;-85
2022/06/17 12:14:39;;;;;;;11.38;11.07;;;32.30;98.00;;;;;;5051341;28;20215;-84
2022/06/17 12:17:12;;;;;;;11.43;11.13;;;32.50;97.50;;;;;;5061349;28;20306;-86
2022/06/17 12:19:39;;;;;;;11.23;10.93;;;32.50;97.20;;;;;;5071752;28;20255;-85
2022/06/17 12:22:16;;;;;;;11.20;10.90;;;32.50;97.40;;;;;;5072158;28;20222;-84
2022/06/17 12:24:55;;;;;;;11.13;10.82;;;32.80;96.70;;;;;;5071091;28;20279;-84
2022/06/17 12:27:27;;;;;;;10.90;10.60;;;32.80;95.20;;;;;;5061406;28;20241;-84
2022/06/17 12:30:03;;;;;;;10.80;10.50;;;32.50;95.50;;;;;;5066215;28;20232;-84
2022/06/17 12:32:46;;;;;;;10.90;10.60;;;32.60;95.20;;;;;;5059659;28;20288;-85
2022/06/17 12:35:22;;;;;;;10.65;10.35;;;32.40;94.70;;;;;;5059090;28;20222;-85
2022/06/17 12:37:59;;;;;;;11.27;10.98;;;33.10;95.60;;;;;;5059139;28;20238;-85
2022/06/17 12:40:35;;;;;;;11.10;10.80;;;33.30;94.80;;;;;;5054731;28;20231;-84
2022/06/17 12:43:13;;;;;;;11.15;10.85;;;33.00;94.40;;;;;;5038476;28;20262;-84
2022/06/17 12:45:50;;;;;;;11.13;10.82;;;32.90;94.20;;;;;;5038497;28;20242;-83
2022/06/17 12:48:31;;;;;;;11.20;10.90;;;32.50;94.10;;;;;;5037726;28;20262;-84
2022/06/17 12:54:18;;;;;;;11.30;11.00;;;32.60;95.30;;;;;;5012058;28;20238;-85
2022/06/17 12:57:01;;;;;;;11.20;10.90;;;32.80;94.50;;;;;;5054451;28;20249;-85
2022/06/17 12:59:54;;;;;;;11.07;10.77;;;32.90;93.20;;;;;;5061018;28;20281;-84
2022/06/17 13:02:32;;;;;;;11.00;10.70;;;33.10;92.90;;;;;;5059463;28;21115;-85
2022/06/17 13:05:15;;;;;;;11.05;10.75;;;32.50;92.10;;;;;;5058858;28;20286;-85
2022/06/17 13:08:01;;;;;;;11.07;10.77;;;32.70;92.70;;;;;;5060478;28;20322;-84
2022/06/17 13:10:44;;;;;;;10.95;10.65;;;33.10;93.50;;;;;;5059791;28;20231;-84
2022/06/17 13:13:38;;;;;;;10.90;10.60;;;33.40;93.30;;;;;;5059375;28;20284;-86
2022/06/17 13:16:13;;;;;;;10.95;10.65;;;33.30;91.50;;;;;;5056043;28;20266;-85
2022/06/17 13:18:49;;;;;;;11.00;10.70;;;33.60;90.00;;;;;;5058651;28;20230;-86
2022/06/17 13:21:24;;;;;;;10.70;10.40;;;33.70;93.50;;;;;;5059257;28;20285;-86
2022/06/17 13:24:05;;;;;;;10.77;10.48;;;34.00;91.20;;;;;;5058810;28;20234;-86
2022/06/17 13:26:40;;;;;;;10.80;10.50;;;34.30;90.30;;;;;;5056578;28;20230;-83
2022/06/17 13:29:25;;;;;;;10.95;10.65;;;34.60;90.40;;;;;;5058101;28;20254;-84
2022/06/17 13:32:01;;;;;;;11.00;10.70;;;34.70;91.00;;;;;;5069105;28;20234;-85
2022/06/17 13:34:36;;;;;;;10.88;10.57;;;34.80;90.10;;;;;;5079344;28;20240;-86
2022/06/17 13:37:12;;;;;;;11.00;10.70;;;34.60;90.30;;;;;;5078123;28;20229;-86
2022/06/17 13:39:45;;;;;;;10.68;10.38;;;34.40;90.50;;;;;;5078733;28;20226;-86
2022/06/17 13:42:15;;;;;;;10.60;10.30;;;34.40;91.70;;;;;;5083058;28;20266;-86
2022/06/17 13:44:56;;;;;;;11.00;10.70;;;34.60;91.20;;;;;;5078463;28;20242;-84
2022/06/17 13:47:47;;;;;;;11.05;10.75;;;34.80;89.60;;;;;;5058121;28;20235;-84
2022/06/17 13:50:38;;;;;;;11.25;10.95;;;34.90;90.90;;;;;;5038110;28;20231;-85
2022/06/17 13:53:18;;;;;;;11.00;10.70;;;34.80;84.80;;;;;;5049402;28;20223;-85
2022/06/17 13:55:58;;;;;;;11.18;10.88;;;34.70;86.70;;;;;;5060635;28;20234;-84
2022/06/17 13:58:34;;;;;;;11.23;10.93;;;34.80;89.40;;;;;;5060996;28;20306;-83
2022/06/17 14:01:34;;;;;;;11.20;10.90;;;35.00;87.50;;;;;;5061812;28;20238;-84
2022/06/17 14:04:20;;;;;;;10.95;10.65;;;35.00;86.70;;;;;;5060872;28;20285;-85
2022/06/17 14:07:04;;;;;;;10.65;10.35;;;35.20;84.30;;;;;;5060365;28;20290;-85
2022/06/17 14:12:48;;;;;;;10.70;10.40;;;34.70;86.10;;;;;;5060047;28;20214;-85
2022/06/17 14:15:19;;;;;;;10.93;10.63;;;34.60;83.70;;;;;;5059386;28;20325;-86
2022/06/17 14:17:55;;;;;;;11.27;10.98;;;34.80;84.20;;;;;;5060153;28;20254;-87
2022/06/17 14:20:37;;;;;;;11.30;11.00;;;34.70;87.00;;;;;;5059956;28;20258;-86
2022/06/17 14:23:37;;;;;;;11.20;10.90;;;34.90;87.10;;;;;;5060166;28;20230;-85
2022/06/17 14:26:05;;;;;;;11.32;11.02;;;34.80;86.10;;;;;;5060162;28;20234;-87
2022/06/17 14:28:42;;;;;;;11.45;11.15;;;34.90;85.20;;;;;;5057919;28;20269;-86
2022/06/17 14:31:18;;;;;;;11.20;10.90;;;34.90;84.50;;;;;;5060097;28;20258;-86
2022/06/17 14:34:16;;;;;;;11.30;11.00;;;34.90;83.50;;;;;;5059166;28;20230;-84
2022/06/17 14:37:07;;;;;;;10.57;10.27;;;35.10;84.70;;;;;;5059709;28;20235;-86
2022/06/17 14:43:06;;;;;;;10.68;10.38;;;34.50;83.10;;;;;;5045975;28;20441;-85
2022/06/17 14:45:57;;;;;;;10.70;10.40;;;34.30;81.70;;;;;;5060274;28;20704;-86
2022/06/17 14:48:49;;;;;;;10.70;10.40;;;33.80;83.60;;;;;;5059003;28;20316;-85
2022/06/17 14:51:45;;;;;;;11.13;10.82;;;34.20;85.60;;;;;;5059510;28;20258;-87
2022/06/17 14:54:32;;;;;;;10.85;10.55;;;34.40;80.30;;;;;;5059335;28;20223;-86
2022/06/17 14:57:22;;;;;;;10.98;10.68;;;34.70;81.10;;;;;;5059953;28;20308;-86
2022/06/17 14:59:50;;;;;;;10.82;10.52;;;34.90;82.00;;;;;;5043802;28;20330;-86
2022/06/17 15:02:40;;;;;;;10.30;10.00;;;34.80;81.40;;;;;;5046705;28;20326;-84
2022/06/17 15:05:24;;;;;;;10.40;10.10;;;34.60;78.80;;;;;;5045770;28;20350;-88
2022/06/17 15:07:57;;;;;;;10.32;10.02;;;34.70;81.50;;;;;;5051400;28;20293;-87
2022/06/17 15:10:29;;;;;;;10.55;10.25;;;35.10;81.60;;;;;;5040125;28;20235;-86
2022/06/17 15:13:00;;;;;;;10.90;10.60;;;35.40;79.20;;;;;;5042010;28;20227;-86
2022/06/17 15:15:34;;;;;;;10.95;10.65;;;35.40;81.10;;;;;;5053673;28;20246;-85
2022/06/17 15:18:05;;;;;;;11.20;10.90;;;35.50;80.00;;;;;;5055981;28;20228;-87
2022/06/17 15:20:37;;;;;;;11.23;10.93;;;35.40;79.50;;;;;;5054556;28;20247;-85
2022/06/17 15:23:22;;;;;;;11.20;10.90;;;35.40;77.40;;;;;;5046562;28;20274;-85
2022/06/17 15:26:03;;;;;;;11.20;10.90;;;35.60;76.20;;;;;;5039727;28;20273;-83
2022/06/17 15:28:39;;;;;;;11.13;10.82;;;35.60;77.70;;;;;;5042245;28;20234;-82
2022/06/17 15:31:09;;;;;;;11.10;10.80;;;35.50;80.00;;;;;;5043152;28;20242;-83
2022/06/17 15:33:40;;;;;;;10.88;10.57;;;35.50;81.40;;;;;;5040593;28;20299;-84
2022/06/17 15:36:23;;;;;;;10.93;10.63;;;35.90;79.10;;;;;;5040006;28;20232;-83
2022/06/17 15:39:04;;;;;;;11.23;10.93;;;36.00;77.00;;;;;;5046001;28;20223;-83
2022/06/17 15:41:36;;;;;;;11.18;10.88;;;35.80;76.60;;;;;;5056453;28;20235;-84
2022/06/17 15:44:18;;;;;;;11.40;11.10;;;35.60;78.10;;;;;;5055163;28;20215;-84
2022/06/17 15:46:55;;;;;;;11.32;11.02;;;35.40;79.90;;;;;;5049077;28;20291;-83
2022/06/17 15:49:26;;;;;;;11.30;11.00;;;35.30;78.00;;;;;;5047236;28;20235;-83
2022/06/17 15:52:08;;;;;;;11.15;10.85;;;35.00;79.10;;;;;;5049189;28;20242;-83
2022/06/17 15:54:37;;;;;;;11.32;11.02;;;35.00;81.80;;;;;;5043000;28;20266;-83
2022/06/17 15:57:06;;;;;;;11.30;11.00;;;34.70;80.30;;;;;;5049361;28;20295;-83
2022/06/17 15:59:35;;;;;;;11.40;11.10;;;34.20;79.70;;;;;;5053793;28;20227;-83
2022/06/17 16:02:15;;;;;;;11.00;10.70;;;33.80;80.80;;;;;;5045024;28;20235;-82
2022/06/17 16:04:42;;;;;;;10.95;10.65;;;33.60;81.40;;;;;;5047396;28;20346;-83
2022/06/17 16:07:30;;;;;;;11.60;11.20;;;33.80;81.50;;;;;;5050406;28;20412;-80
2022/06/17 16:10:23;;;;;;;11.18;10.88;;;34.00;81.50;;;;;;5057324;28;20223;-81
2022/06/17 16:12:53;;;;;;;11.00;10.70;;;34.20;78.50;;;;;;5057900;28;20222;-82